Medicine Hat Airport
CYXH : now visible

Aeroporto :











RITROVATECI SU...

 
LOGIN :

Iscrizione | Disclaimer

   EN    FR    IT 

 









Sommario :    VFR   VFR Marginale   IFR   IFR Intensivo   IFR Molto Intensivo
Visibilità : 
Base nubi : 
>= 8 km
>= 3000ft
5 / 8 km
1000 / 3000 ft
1500m / 5 km
500 / 1000 ft
800 / 1500m
200 / 500 ft
< 800m
< 200 ft
Simboli :   Temporali  Nebbia  Neve Forte  Precipitazioni Forti  Vento > 20 kt






- Altitudine del aeroporto : 2352 ft
- Codice IATA : YXH


CYXH - Medicine Hat

ULTIMO METAR :
  • 150500Z AUTO 23009KT 8SM BKN065 OVC091 M07/M10 A2977 RMK SLP128

METARs OBSOLETI :
  • 150416Z AUTO 22007KT 8SM SCT007 OVC080 M07/M10 A2978 RMK SLP130
  • 150300Z 22008KT 8SM -SN OVC010 M07/M10 A2978 RMK SC8 LAST STFD OBS/NEXT 151300Z SLP132

TAF AMD TAF CYXH
Valido dal 15 a 04 ore il 15 a 12 ore UTC


150419Z 1504/1512 22008KT P6SM SCT012 OVC080
TEMPO 1504/1510 4SM -SHSN BR SCT006 BKN012 OVC040 RMK NXT FCST BY 150600Z



MetMap, La meteo Aeronautica in un colpo d'occhio ! - Copyright ORBIFLY Dicembre 2007 - Disclaimer

ORBIFLY MET'MAP TEAM :

Programmazione e sviluppo : Alexandra Zaïnal
Concezione : Baudouin d'Aumeries
Aiuto per la programmazione : Marc-Olivier Méhu
Supporto tecnico e logistico : Manuel Goepfert
Aiuto per la traduzione : Arnaldo La Scala

Contatto : metmap@orbifly.com




FONTI E CREDITI :

   NOAA       Earth
Advisory